Hamtown, North Carolina
Current Conditions -  °F | °C
As of 11:21 AM on Thursday 27 Nov 2014 (Local Time) from KGSO Reporting Station
Overcast Overcast  
Wind Chill: 39°   Ceiling: 3200
Heat Index: 39°   Visibility: 7mi
Dew Point: 36°   Wind: 3mph
Humidity: 87%   Direction: 290°WNW
Pressure: 30.06"   Gusts: NA
Location:  36.1157°N, 79.7378°W
Report Text: KGSO 271621Z 29003KT 7SM FEW009 BKN032 BKN070 OVC250 04/02 A3006 RMK AO2 RAE20 P0000
Loading
Personal Weather Stations






























Interactive Weather Map New forecast layout! Learn more

10-Day Weather Forecast

Advertisements
Track Severe Weather on mobile